Terminal Aerodrome Forecast
Issued by NWS Wakefield, VA

Home | Current Version | Previous Version | Text Only | Print | Product List | Glossary On
Versions: 1 2 3 4 5 6 7 8 9 10 11 12 13 14 15 16 17 18 19 20 21 22 23 24 25 26 27 28 29 30 31 32 33
572
FTUS41 KAKQ 162320
TAFECG
TAF
KECG 162320Z 1700/1724 10005KT P6SM SKC
     FM170700 00000KT 4SM BR SCT150
     FM171200 VRB03KT P6SM SCT100
     FM171800 14007KT P6SM SCT050=

USA.gov is the U.S. government's official web portal to all federal, state and local government web resources and services.